createdAt,value
2023-06-11T00:02:47.825Z,101553.66
2023-06-11T00:07:50.166Z,101552.53
2023-06-11T00:12:51.620Z,101552.09
2023-06-11T00:17:53.803Z,101551.78
2023-06-11T00:22:55.242Z,101555.16
2023-06-11T00:27:56.806Z,101557.25
2023-06-11T00:32:58.389Z,101543.22
2023-06-11T00:37:59.992Z,101556.38
2023-06-11T00:43:04.043Z,101550.94
2023-06-11T00:48:06.760Z,101537.78
2023-06-11T00:53:08.383Z,101541.84
2023-06-11T00:58:14.791Z,101538.97
2023-06-11T01:03:19.241Z,101555.19
2023-06-11T01:08:21.051Z,101539.38
2023-06-11T01:13:22.617Z,101543.72
2023-06-11T01:18:24.921Z,101549.06
2023-06-11T01:23:42.492Z,101552.78
2023-06-11T01:28:46.095Z,101554.31
2023-06-11T01:33:47.672Z,101557.47
2023-06-11T01:38:52.139Z,101552.78
2023-06-11T01:43:53.704Z,101564.25
2023-06-11T01:48:55.229Z,101552.78
2023-06-11T01:53:57.190Z,101557.81
2023-06-11T01:58:59.040Z,101557.97
2023-06-11T02:04:00.717Z,101553.47
2023-06-11T02:09:02.404Z,101554.66
2023-06-11T02:14:03.957Z,101561.63
2023-06-11T02:19:05.825Z,101562.19
2023-06-11T02:24:08.029Z,101562.19
2023-06-11T02:29:09.469Z,101563.91
2023-06-11T02:34:11.005Z,101559.34
2023-06-11T02:39:12.561Z,101568.72
2023-06-11T02:44:14.117Z,101554.94
2023-06-11T02:49:15.669Z,101560.78
2023-06-11T02:54:17.229Z,101555.72
2023-06-11T02:59:18.812Z,101557.38
2023-06-11T03:04:20.543Z,101557.56
2023-06-11T03:09:25.138Z,101558.16
2023-06-11T03:14:27.335Z,101553.31
2023-06-11T03:19:28.883Z,101555.31
2023-06-11T03:24:30.425Z,101556.72
2023-06-11T03:29:32.041Z,101547.81
2023-06-11T03:34:33.587Z,101550.47
2023-06-11T03:39:35.138Z,101553.69
2023-06-11T03:44:36.901Z,101553.41
2023-06-11T03:49:38.437Z,101559.56
2023-06-11T03:54:40.019Z,101565.59
2023-06-11T03:59:41.558Z,101558.81
2023-06-11T04:04:43.229Z,101558.59
2023-06-11T04:09:44.872Z,101565.59
2023-06-11T04:14:46.968Z,101572.28
2023-06-11T04:19:48.499Z,101566.88
2023-06-11T04:24:50.056Z,101571.13
2023-06-11T04:29:54.122Z,101570.94
2023-06-11T04:34:58.051Z,101562.97
2023-06-11T04:40:09.537Z,101566.34
2023-06-11T04:45:11.865Z,101567.63
2023-06-11T04:50:14.055Z,101556.78
2023-06-11T04:55:15.868Z,101569.66
2023-06-11T05:00:17.817Z,101561.44
2023-06-11T05:05:19.455Z,101573.38
2023-06-11T05:10:21.142Z,101568.06
2023-06-11T05:15:22.673Z,101565.59
2023-06-11T05:20:27.173Z,101565.69
2023-06-11T05:25:29.583Z,101575.16
2023-06-11T05:30:37.598Z,101565.69
2023-06-11T05:35:39.277Z,101569.16
2023-06-11T05:40:40.846Z,101567.69
2023-06-11T05:45:51.290Z,101567.38
2023-06-11T05:50:52.966Z,101566.56
2023-06-11T05:55:55.761Z,101570.69
2023-06-11T06:00:57.754Z,101570.09
2023-06-11T06:06:00.276Z,101577.38
2023-06-11T06:11:01.849Z,101578.72
2023-06-11T06:16:03.478Z,101586.34
2023-06-11T06:21:05.084Z,101570.69
2023-06-11T06:26:07.676Z,101582.38
2023-06-11T06:31:09.381Z,101586.25
2023-06-11T06:36:11.413Z,101581.66
2023-06-11T06:41:13.010Z,101578.09
2023-06-11T06:46:14.572Z,101585.63
2023-06-11T06:51:17.683Z,101583.47
2023-06-11T06:56:19.225Z,101583.19
2023-06-11T07:01:20.848Z,101582.25
2023-06-11T07:06:22.440Z,101585.66
2023-06-11T07:11:24.058Z,101597.31
2023-06-11T07:16:25.681Z,101587.81
2023-06-11T07:21:27.350Z,101590.69
2023-06-11T07:26:29.069Z,101588.28
2023-06-11T07:31:30.768Z,101594.97
2023-06-11T07:36:32.358Z,101594.06
2023-06-11T07:41:34.086Z,101587.63
2023-06-11T07:46:35.718Z,101585.41
2023-06-11T07:51:37.616Z,101577.72
2023-06-11T07:56:39.221Z,101587.38
2023-06-11T08:01:40.798Z,101590.00
2023-06-11T08:06:43.448Z,101587.50
2023-06-11T08:11:44.974Z,101593.63
2023-06-11T08:16:46.877Z,101586.84
2023-06-11T08:21:48.552Z,101586.63
2023-06-11T08:26:50.235Z,101587.34
2023-06-11T08:31:51.844Z,101588.41
2023-06-11T08:36:53.447Z,101595.25
2023-06-11T08:41:55.013Z,101596.50
2023-06-11T08:46:59.531Z,101595.75
2023-06-11T08:52:03.173Z,101595.75
2023-06-11T08:57:05.959Z,101592.78
2023-06-11T09:02:07.589Z,101595.41
2023-06-11T09:07:09.713Z,101600.72
2023-06-11T09:12:12.044Z,101591.16
2023-06-11T09:17:16.534Z,101595.88
2023-06-11T09:22:26.140Z,101605.94
2023-06-11T09:27:28.613Z,101600.44
2023-06-11T09:32:34.036Z,101610.31
2023-06-11T09:37:46.869Z,101604.63
2023-06-11T09:42:49.368Z,101597.38
2023-06-11T09:47:52.625Z,101603.66
2023-06-11T09:52:54.500Z,101596.38
2023-06-11T09:57:56.075Z,101591.78
2023-06-11T10:02:58.619Z,101598.69
2023-06-11T10:08:06.348Z,101588.31
2023-06-11T10:13:07.898Z,101590.31
2023-06-11T10:18:15.485Z,101592.63
2023-06-11T10:23:17.109Z,101587.81
2023-06-11T10:28:18.643Z,101596.25
2023-06-11T10:33:22.179Z,101598.03
2023-06-11T10:38:29.853Z,101595.25
2023-06-11T10:43:32.214Z,101594.91
2023-06-11T10:48:33.778Z,101590.63
2023-06-11T10:53:42.299Z,101593.44
2023-06-11T10:58:49.816Z,101599.00
2023-06-11T11:03:52.318Z,101588.47
2023-06-11T11:08:56.531Z,101595.09
2023-06-11T11:14:02.082Z,101589.25
2023-06-11T11:19:03.810Z,101583.75
2023-06-11T11:24:10.048Z,101584.09
2023-06-11T11:29:11.686Z,101575.50
2023-06-11T11:34:13.809Z,101573.22
2023-06-11T11:39:15.545Z,101573.56
2023-06-11T11:44:21.178Z,101568.84
2023-06-11T11:49:22.708Z,101563.44
2023-06-11T11:54:24.122Z,101568.63
2023-06-11T11:59:28.968Z,101569.63
2023-06-11T12:04:40.384Z,101566.56
2023-06-11T12:09:41.989Z,101559.84
2023-06-11T12:14:43.538Z,101562.22
2023-06-11T12:19:45.070Z,101554.78
2023-06-11T12:24:46.485Z,101551.88
2023-06-11T12:29:54.136Z,101550.16
2023-06-11T12:34:55.732Z,101550.44
2023-06-11T12:39:57.281Z,101554.63
2023-06-11T12:45:00.126Z,101552.94
2023-06-11T12:50:02.413Z,101546.63
2023-06-11T12:55:04.144Z,101546.19
2023-06-11T13:00:06.431Z,101542.78
2023-06-11T13:05:08.440Z,101529.72
2023-06-11T13:10:10.679Z,101530.13
2023-06-11T13:15:12.608Z,101531.75
2023-06-11T13:20:15.369Z,101527.88
2023-06-11T13:25:18.249Z,101539.47
2023-06-11T13:30:19.899Z,101543.84
2023-06-11T13:35:21.480Z,101535.06
2023-06-11T13:40:23.116Z,101539.38
2023-06-11T13:45:24.726Z,101547.06
2023-06-11T13:50:26.365Z,101539.38
2023-06-11T13:55:27.900Z,101545.19
2023-06-11T14:00:29.528Z,101547.28
2023-06-11T14:05:31.189Z,101536.03
2023-06-11T14:10:32.815Z,101544.59
2023-06-11T14:15:34.345Z,101548.16
2023-06-11T14:20:35.921Z,101539.22
2023-06-11T14:25:37.484Z,101542.22
2023-06-11T14:30:39.032Z,101531.88
2023-06-11T14:35:40.572Z,101533.59
2023-06-11T14:40:42.151Z,101532.13
2023-06-11T14:45:43.698Z,101541.44
2023-06-11T14:50:45.241Z,101541.34
2023-06-11T14:55:46.786Z,101541.66
2023-06-11T15:00:48.357Z,101535.25
2023-06-11T15:05:49.937Z,101533.94
2023-06-11T15:10:51.596Z,101535.31
2023-06-11T15:15:54.072Z,101537.25
2023-06-11T15:20:55.762Z,101535.13
2023-06-11T15:25:57.316Z,101530.16
2023-06-11T15:30:58.897Z,101520.31
2023-06-11T15:36:00.525Z,101511.22
2023-06-11T15:41:02.080Z,101510.25
2023-06-11T15:46:04.102Z,101519.63
2023-06-11T15:51:05.723Z,101512.63
2023-06-11T15:56:07.288Z,101511.50
2023-06-11T16:01:09.135Z,101517.53
2023-06-11T16:06:10.805Z,101519.00
2023-06-11T16:11:12.583Z,101527.88
2023-06-11T16:16:14.160Z,101521.06
2023-06-11T16:21:16.109Z,101523.50
2023-06-11T16:26:17.667Z,101527.59
2023-06-11T16:31:19.254Z,101523.28
2023-06-11T16:36:20.907Z,101524.53
2023-06-11T16:41:23.305Z,101510.81
2023-06-11T16:46:24.939Z,101504.19
2023-06-11T16:51:26.583Z,101503.94
2023-06-11T16:56:28.254Z,101499.88
2023-06-11T17:01:29.983Z,101504.63
2023-06-11T17:06:31.656Z,101498.06
2023-06-11T17:11:33.053Z,101508.16
2023-06-11T17:16:34.685Z,101499.53
2023-06-11T17:21:36.796Z,101498.94
2023-06-11T17:26:39.497Z,101499.44
2023-06-11T17:31:41.195Z,101505.84
2023-06-11T17:36:42.728Z,101499.03
2023-06-11T17:41:44.156Z,101499.56
2023-06-11T17:46:46.922Z,101491.31
2023-06-11T17:51:49.678Z,101500.88
2023-06-11T17:56:51.226Z,101499.91
2023-06-11T18:01:52.833Z,101503.13
2023-06-11T18:06:54.290Z,101499.09
2023-06-11T18:11:55.910Z,101503.09
2023-06-11T18:16:58.677Z,101486.28
2023-06-11T18:22:00.415Z,101492.22
2023-06-11T18:27:03.969Z,101492.34
2023-06-11T18:32:07.591Z,101489.75
2023-06-11T18:37:09.257Z,101493.84
2023-06-11T18:42:17.188Z,101504.94
2023-06-11T18:47:18.802Z,101500.47
2023-06-11T18:52:20.433Z,101503.94
2023-06-11T18:57:26.223Z,101498.91
2023-06-11T19:02:27.868Z,101495.28
2023-06-11T19:07:31.350Z,101509.69
2023-06-11T19:12:32.894Z,101497.03
2023-06-11T19:17:34.667Z,101501.91
2023-06-11T19:22:36.423Z,101511.47
2023-06-11T19:27:38.095Z,101513.09
2023-06-11T19:32:39.673Z,101517.38
2023-06-11T19:37:41.274Z,101512.56
2023-06-11T19:42:42.881Z,101519.06
2023-06-11T19:47:44.519Z,101520.53
2023-06-11T19:52:46.080Z,101519.41
2023-06-11T19:57:47.660Z,101534.09
2023-06-11T20:02:49.379Z,101524.34
2023-06-11T20:07:50.950Z,101534.50
2023-06-11T20:12:52.489Z,101549.31
2023-06-11T20:17:54.091Z,101546.38
2023-06-11T20:22:55.637Z,101547.63
2023-06-11T20:27:57.191Z,101552.59
2023-06-11T20:32:58.816Z,101558.28
2023-06-11T20:38:00.924Z,101557.50
2023-06-11T20:43:02.482Z,101557.91
2023-06-11T20:48:04.294Z,101560.16
2023-06-11T20:53:11.304Z,101555.25
2023-06-11T20:58:18.371Z,101553.38
2023-06-11T21:03:20.182Z,101557.16
2023-06-11T21:08:21.799Z,101565.91
2023-06-11T21:13:23.348Z,101560.94
2023-06-11T21:18:24.952Z,101562.03
2023-06-11T21:23:26.574Z,101567.41
2023-06-11T21:28:28.425Z,101568.50
2023-06-11T21:33:29.990Z,101576.59
2023-06-11T21:38:31.868Z,101568.84
2023-06-11T21:43:33.431Z,101571.00
2023-06-11T21:48:35.015Z,101587.47
2023-06-11T21:53:36.584Z,101586.22
2023-06-11T21:58:38.160Z,101593.94
2023-06-11T22:03:39.721Z,101594.28
2023-06-11T22:08:41.552Z,101594.81
2023-06-11T22:13:43.150Z,101596.06
2023-06-11T22:18:45.213Z,101609.63
2023-06-11T22:23:51.106Z,101609.28
2023-06-11T22:28:53.126Z,101599.41
2023-06-11T22:33:54.676Z,101598.31
2023-06-11T22:38:56.255Z,101600.97
2023-06-11T22:43:57.824Z,101610.47
2023-06-11T22:48:59.379Z,101604.69
2023-06-11T22:54:00.916Z,101607.03
2023-06-11T22:59:02.520Z,101599.31
2023-06-11T23:04:04.427Z,101599.41
2023-06-11T23:09:06.012Z,101599.50
2023-06-11T23:14:09.203Z,101602.03
2023-06-11T23:19:11.361Z,101599.66
2023-06-11T23:24:13.806Z,101598.94
2023-06-11T23:29:16.119Z,101598.28
2023-06-11T23:34:17.897Z,101594.44
2023-06-11T23:39:19.840Z,101592.56
2023-06-11T23:44:21.380Z,101581.25
2023-06-11T23:49:22.912Z,101584.41
2023-06-11T23:54:24.445Z,101580.47
2023-06-11T23:59:25.990Z,101575.53
